sensor_id;sensor_type;location;lat;lon;timestamp;pressure;altitude;pressure_sealevel;temperature;humidity
16544;BME280;8384;47.996;7.786;2023-05-23T00:01:11;98680.63;;;18.04;80.14
16544;BME280;8384;47.996;7.786;2023-05-23T00:03:38;98683.09;;;18.06;80.02
16544;BME280;8384;47.996;7.786;2023-05-23T00:06:05;98684.22;;;18.05;80.17
16544;BME280;8384;47.996;7.786;2023-05-23T00:08:31;98683.47;;;18.13;79.55
16544;BME280;8384;47.996;7.786;2023-05-23T00:10:56;98693.53;;;18.09;79.09
16544;BME280;8384;47.996;7.786;2023-05-23T00:13:21;98686.16;;;18.04;79.63
16544;BME280;8384;47.996;7.786;2023-05-23T00:15:47;98680.00;;;17.93;80.04
16544;BME280;8384;47.996;7.786;2023-05-23T00:18:13;98678.25;;;17.97;80.06
16544;BME280;8384;47.996;7.786;2023-05-23T00:20:40;98679.94;;;17.84;80.66
16544;BME280;8384;47.996;7.786;2023-05-23T00:23:07;98677.50;;;17.83;80.89
16544;BME280;8384;47.996;7.786;2023-05-23T00:25:34;98675.94;;;17.91;79.86
16544;BME280;8384;47.996;7.786;2023-05-23T00:28:00;98677.34;;;17.88;80.25
16544;BME280;8384;47.996;7.786;2023-05-23T00:30:26;98675.94;;;17.91;80.31
16544;BME280;8384;47.996;7.786;2023-05-23T00:32:52;98641.63;;;17.55;80.61
16544;BME280;8384;47.996;7.786;2023-05-23T00:35:19;98671.38;;;17.72;80.26
16544;BME280;8384;47.996;7.786;2023-05-23T00:37:44;98676.25;;;17.75;81.09
16544;BME280;8384;47.996;7.786;2023-05-23T00:40:10;98678.03;;;17.71;80.81
16544;BME280;8384;47.996;7.786;2023-05-23T00:42:36;98690.00;;;17.66;81.52
16544;BME280;8384;47.996;7.786;2023-05-23T00:45:01;98677.84;;;17.53;81.88
16544;BME280;8384;47.996;7.786;2023-05-23T00:47:26;98645.53;;;17.40;81.52
16544;BME280;8384;47.996;7.786;2023-05-23T00:49:52;98693.09;;;17.65;81.47
16544;BME280;8384;47.996;7.786;2023-05-23T00:52:17;98693.72;;;17.62;81.83
16544;BME280;8384;47.996;7.786;2023-05-23T00:54:42;98697.09;;;17.59;81.61
16544;BME280;8384;47.996;7.786;2023-05-23T00:57:08;98693.63;;;17.53;82.25
16544;BME280;8384;47.996;7.786;2023-05-23T00:59:34;98697.19;;;17.53;82.19
16544;BME280;8384;47.996;7.786;2023-05-23T01:02:00;98697.50;;;17.66;81.65
16544;BME280;8384;47.996;7.786;2023-05-23T01:04:26;98697.78;;;17.64;82.03
16544;BME280;8384;47.996;7.786;2023-05-23T01:06:53;98693.72;;;17.62;81.86
16544;BME280;8384;47.996;7.786;2023-05-23T01:09:20;98689.13;;;17.43;82.46
16544;BME280;8384;47.996;7.786;2023-05-23T01:12:19;98702.00;;;17.48;83.30
16544;BME280;8384;47.996;7.786;2023-05-23T01:14:55;98703.31;;;17.50;83.07
16544;BME280;8384;47.996;7.786;2023-05-23T01:20:10;98713.47;;;17.69;82.07
16544;BME280;8384;47.996;7.786;2023-05-23T01:25:47;98699.81;;;17.73;81.53
16544;BME280;8384;47.996;7.786;2023-05-23T01:28:27;98698.28;;;17.80;81.23
16544;BME280;8384;47.996;7.786;2023-05-23T01:30:56;98701.97;;;17.76;81.36
16544;BME280;8384;47.996;7.786;2023-05-23T01:33:24;98704.84;;;17.71;82.09
16544;BME280;8384;47.996;7.786;2023-05-23T01:35:49;98702.31;;;17.74;81.73
16544;BME280;8384;47.996;7.786;2023-05-23T01:38:15;98723.22;;;18.03;80.64
16544;BME280;8384;47.996;7.786;2023-05-23T01:40:40;98713.00;;;18.04;80.08
16544;BME280;8384;47.996;7.786;2023-05-23T01:43:06;98705.31;;;17.87;81.24
16544;BME280;8384;47.996;7.786;2023-05-23T01:45:32;98707.66;;;17.93;80.95
16544;BME280;8384;47.996;7.786;2023-05-23T01:47:58;98708.00;;;17.78;81.99
16544;BME280;8384;47.996;7.786;2023-05-23T01:50:25;98702.13;;;17.93;81.63
16544;BME280;8384;47.996;7.786;2023-05-23T01:52:50;98706.06;;;17.78;82.25
16544;BME280;8384;47.996;7.786;2023-05-23T01:55:20;98704.63;;;17.81;81.98
16544;BME280;8384;47.996;7.786;2023-05-23T01:57:51;98706.44;;;17.99;81.30
16544;BME280;8384;47.996;7.786;2023-05-23T02:00:17;98717.53;;;18.45;78.95
16544;BME280;8384;47.996;7.786;2023-05-23T02:02:43;98704.53;;;17.86;82.50
16544;BME280;8384;47.996;7.786;2023-05-23T02:05:09;98706.81;;;17.70;85.35
16544;BME280;8384;47.996;7.786;2023-05-23T02:07:35;98701.34;;;17.79;84.07
16544;BME280;8384;47.996;7.786;2023-05-23T02:10:00;98721.81;;;17.92;83.82
16544;BME280;8384;47.996;7.786;2023-05-23T02:12:25;98688.16;;;17.76;83.34
16544;BME280;8384;47.996;7.786;2023-05-23T02:14:53;98711.22;;;17.71;84.72
16544;BME280;8384;47.996;7.786;2023-05-23T02:17:19;98686.25;;;17.48;85.84
16544;BME280;8384;47.996;7.786;2023-05-23T02:19:46;98707.72;;;17.51;86.82
16544;BME280;8384;47.996;7.786;2023-05-23T02:22:12;98704.59;;;17.44;87.39
16544;BME280;8384;47.996;7.786;2023-05-23T02:24:37;98699.16;;;17.53;87.39
16544;BME280;8384;47.996;7.786;2023-05-23T02:27:02;98701.59;;;17.54;86.55
16544;BME280;8384;47.996;7.786;2023-05-23T02:29:28;98700.19;;;17.43;87.28
16544;BME280;8384;47.996;7.786;2023-05-23T02:31:53;98700.81;;;17.26;88.59
16544;BME280;8384;47.996;7.786;2023-05-23T02:34:18;98705.91;;;17.19;88.59
16544;BME280;8384;47.996;7.786;2023-05-23T02:36:44;98703.34;;;17.08;89.12
16544;BME280;8384;47.996;7.786;2023-05-23T02:39:09;98706.72;;;17.05;88.74
16544;BME280;8384;47.996;7.786;2023-05-23T02:41:34;98693.34;;;16.66;90.34
16544;BME280;8384;47.996;7.786;2023-05-23T02:44:01;98718.66;;;17.01;89.61
16544;BME280;8384;47.996;7.786;2023-05-23T02:46:26;98700.72;;;16.84;89.40
16544;BME280;8384;47.996;7.786;2023-05-23T02:48:51;98718.66;;;17.01;89.89
16544;BME280;8384;47.996;7.786;2023-05-23T02:51:17;98702.16;;;16.82;90.02
16544;BME280;8384;47.996;7.786;2023-05-23T02:53:42;98689.66;;;16.70;90.57
16544;BME280;8384;47.996;7.786;2023-05-23T02:56:07;98703.03;;;16.63;91.47
16544;BME280;8384;47.996;7.786;2023-05-23T02:58:34;98707.63;;;16.54;92.52
16544;BME280;8384;47.996;7.786;2023-05-23T03:01:03;98709.44;;;16.25;94.34
16544;BME280;8384;47.996;7.786;2023-05-23T03:03:28;98687.63;;;16.10;94.54
16544;BME280;8384;47.996;7.786;2023-05-23T03:05:56;98701.03;;;16.16;94.78
16544;BME280;8384;47.996;7.786;2023-05-23T03:08:22;98689.63;;;16.04;95.36
16544;BME280;8384;47.996;7.786;2023-05-23T03:10:47;98709.69;;;16.10;95.84
16544;BME280;8384;47.996;7.786;2023-05-23T03:13:12;98714.44;;;16.23;95.51
16544;BME280;8384;47.996;7.786;2023-05-23T03:15:38;98689.88;;;16.08;95.14
16544;BME280;8384;47.996;7.786;2023-05-23T03:18:03;98698.28;;;16.16;95.51
16544;BME280;8384;47.996;7.786;2023-05-23T03:20:28;98720.91;;;16.32;95.58
16544;BME280;8384;47.996;7.786;2023-05-23T03:22:53;98715.63;;;16.36;94.75
16544;BME280;8384;47.996;7.786;2023-05-23T03:25:19;98726.34;;;16.38;95.40
16544;BME280;8384;47.996;7.786;2023-05-23T03:27:44;98723.22;;;16.44;95.33
16544;BME280;8384;47.996;7.786;2023-05-23T03:30:10;98717.38;;;16.46;95.37
16544;BME280;8384;47.996;7.786;2023-05-23T03:32:35;98712.81;;;16.55;94.94
16544;BME280;8384;47.996;7.786;2023-05-23T03:35:01;98715.09;;;16.67;94.08
16544;BME280;8384;47.996;7.786;2023-05-23T03:37:26;98721.22;;;16.64;94.29
16544;BME280;8384;47.996;7.786;2023-05-23T03:39:51;98698.47;;;16.20;95.62
16544;BME280;8384;47.996;7.786;2023-05-23T03:42:17;98705.28;;;16.28;95.83
16544;BME280;8384;47.996;7.786;2023-05-23T03:44:42;98728.00;;;16.39;96.24
16544;BME280;8384;47.996;7.786;2023-05-23T03:47:08;98720.59;;;16.34;96.03
16544;BME280;8384;47.996;7.786;2023-05-23T03:49:33;98727.59;;;16.45;95.82
16544;BME280;8384;47.996;7.786;2023-05-23T03:51:59;98729.69;;;16.54;95.48
16544;BME280;8384;47.996;7.786;2023-05-23T03:54:24;98740.41;;;16.88;93.28
16544;BME280;8384;47.996;7.786;2023-05-23T03:56:49;98734.34;;;17.05;90.57
16544;BME280;8384;47.996;7.786;2023-05-23T03:59:15;98713.00;;;16.92;91.43
16544;BME280;8384;47.996;7.786;2023-05-23T04:01:40;98731.88;;;17.04;90.56
16544;BME280;8384;47.996;7.786;2023-05-23T04:04:05;98743.75;;;17.04;91.33
16544;BME280;8384;47.996;7.786;2023-05-23T04:06:31;98699.66;;;16.66;92.04
16544;BME280;8384;47.996;7.786;2023-05-23T04:08:57;98743.31;;;16.97;92.38
16544;BME280;8384;47.996;7.786;2023-05-23T04:11:22;98733.53;;;16.86;92.79
16544;BME280;8384;47.996;7.786;2023-05-23T04:13:48;98741.59;;;17.01;91.76
16544;BME280;8384;47.996;7.786;2023-05-23T04:16:13;98741.03;;;16.85;92.32
16544;BME280;8384;47.996;7.786;2023-05-23T04:18:38;98719.34;;;16.78;92.49
16544;BME280;8384;47.996;7.786;2023-05-23T04:21:04;98723.19;;;16.63;93.75
16544;BME280;8384;47.996;7.786;2023-05-23T04:23:29;98752.56;;;16.87;94.39
16544;BME280;8384;47.996;7.786;2023-05-23T04:25:54;98752.31;;;17.03;92.98
16544;BME280;8384;47.996;7.786;2023-05-23T04:28:21;98754.19;;;17.07;91.94
16544;BME280;8384;47.996;7.786;2023-05-23T04:30:47;98758.47;;;17.14;92.31
16544;BME280;8384;47.996;7.786;2023-05-23T04:33:13;98754.66;;;16.96;92.72
16544;BME280;8384;47.996;7.786;2023-05-23T04:35:38;98734.47;;;16.81;93.51
16544;BME280;8384;47.996;7.786;2023-05-23T04:38:04;98743.97;;;16.89;94.06
16544;BME280;8384;47.996;7.786;2023-05-23T04:40:30;98734.06;;;16.88;93.71
16544;BME280;8384;47.996;7.786;2023-05-23T04:42:55;98739.06;;;16.86;94.82
16544;BME280;8384;47.996;7.786;2023-05-23T04:45:21;98745.47;;;17.00;93.54
16544;BME280;8384;47.996;7.786;2023-05-23T04:47:46;98770.66;;;17.13;92.77
16544;BME280;8384;47.996;7.786;2023-05-23T04:50:12;98763.97;;;17.00;93.82
16544;BME280;8384;47.996;7.786;2023-05-23T04:52:39;98771.13;;;17.01;94.81
16544;BME280;8384;47.996;7.786;2023-05-23T04:55:05;98778.22;;;17.21;93.83
16544;BME280;8384;47.996;7.786;2023-05-23T04:57:30;98774.38;;;17.50;91.04
16544;BME280;8384;47.996;7.786;2023-05-23T04:59:56;98775.50;;;17.35;91.70
16544;BME280;8384;47.996;7.786;2023-05-23T05:02:21;98755.00;;;17.22;92.82
16544;BME280;8384;47.996;7.786;2023-05-23T05:04:46;98768.22;;;17.67;89.11
16544;BME280;8384;47.996;7.786;2023-05-23T05:07:12;98774.03;;;17.79;88.00
16544;BME280;8384;47.996;7.786;2023-05-23T05:09:37;98775.41;;;17.54;89.48
16544;BME280;8384;47.996;7.786;2023-05-23T05:12:02;98780.09;;;17.53;90.30
16544;BME280;8384;47.996;7.786;2023-05-23T05:14:27;98769.78;;;17.45;90.78
16544;BME280;8384;47.996;7.786;2023-05-23T05:16:53;98781.03;;;17.77;88.60
16544;BME280;8384;47.996;7.786;2023-05-23T05:19:22;98738.25;;;17.46;89.05
16544;BME280;8384;47.996;7.786;2023-05-23T05:21:48;98782.66;;;17.50;90.38
16544;BME280;8384;47.996;7.786;2023-05-23T05:24:13;98780.00;;;17.73;88.59
16544;BME280;8384;47.996;7.786;2023-05-23T05:26:39;98782.75;;;17.87;87.50
16544;BME280;8384;47.996;7.786;2023-05-23T05:29:04;98781.22;;;17.80;88.08
16544;BME280;8384;47.996;7.786;2023-05-23T05:31:30;98756.06;;;17.54;88.83
16544;BME280;8384;47.996;7.786;2023-05-23T05:33:55;98780.59;;;17.83;88.04
16544;BME280;8384;47.996;7.786;2023-05-23T05:36:20;98762.72;;;17.39;89.30
16544;BME280;8384;47.996;7.786;2023-05-23T05:38:46;98775.69;;;17.38;91.13
16544;BME280;8384;47.996;7.786;2023-05-23T05:41:12;98794.50;;;17.36;91.73
16544;BME280;8384;47.996;7.786;2023-05-23T05:43:37;98784.28;;;17.23;92.49
16544;BME280;8384;47.996;7.786;2023-05-23T05:46:02;98784.38;;;17.18;93.63
16544;BME280;8384;47.996;7.786;2023-05-23T05:48:28;98708.81;;;16.47;93.05
16544;BME280;8384;47.996;7.786;2023-05-23T05:50:53;98798.19;;;17.18;93.84
16544;BME280;8384;47.996;7.786;2023-05-23T05:53:18;98805.50;;;17.08;94.47
16544;BME280;8384;47.996;7.786;2023-05-23T05:55:43;98809.50;;;17.02;94.84
16544;BME280;8384;47.996;7.786;2023-05-23T05:58:09;98818.59;;;17.03;94.69
16544;BME280;8384;47.996;7.786;2023-05-23T06:00:34;98821.34;;;16.84;96.28
16544;BME280;8384;47.996;7.786;2023-05-23T06:03:06;98812.78;;;16.85;97.20
16544;BME280;8384;47.996;7.786;2023-05-23T06:05:31;98823.38;;;16.78;97.19
16544;BME280;8384;47.996;7.786;2023-05-23T06:07:56;98818.38;;;16.80;96.83
16544;BME280;8384;47.996;7.786;2023-05-23T06:10:22;98780.75;;;16.51;97.38
16544;BME280;8384;47.996;7.786;2023-05-23T06:12:48;98816.53;;;16.75;97.08
16544;BME280;8384;47.996;7.786;2023-05-23T06:15:14;98819.50;;;16.79;97.38
16544;BME280;8384;47.996;7.786;2023-05-23T06:17:40;98820.88;;;16.82;96.84
16544;BME280;8384;47.996;7.786;2023-05-23T06:20:06;98801.56;;;16.62;97.20
16544;BME280;8384;47.996;7.786;2023-05-23T06:22:32;98818.25;;;16.71;97.60
16544;BME280;8384;47.996;7.786;2023-05-23T06:24:57;98816.03;;;16.73;97.26
16544;BME280;8384;47.996;7.786;2023-05-23T06:27:23;98818.31;;;16.85;97.43
16544;BME280;8384;47.996;7.786;2023-05-23T06:29:48;98813.22;;;16.92;97.61
16544;BME280;8384;47.996;7.786;2023-05-23T06:32:13;98818.31;;;17.04;95.57
16544;BME280;8384;47.996;7.786;2023-05-23T06:34:38;98821.47;;;17.12;94.80
16544;BME280;8384;47.996;7.786;2023-05-23T06:37:04;98822.50;;;17.16;94.37
16544;BME280;8384;47.996;7.786;2023-05-23T06:39:29;98830.69;;;17.07;94.31
16544;BME280;8384;47.996;7.786;2023-05-23T06:41:54;98833.88;;;16.95;95.73
16544;BME280;8384;47.996;7.786;2023-05-23T06:44:20;98828.53;;;16.85;96.14
16544;BME280;8384;47.996;7.786;2023-05-23T06:46:45;98811.31;;;16.74;96.22
16544;BME280;8384;47.996;7.786;2023-05-23T06:49:11;98824.44;;;16.82;97.04
16544;BME280;8384;47.996;7.786;2023-05-23T06:51:37;98833.44;;;16.88;97.05
16544;BME280;8384;47.996;7.786;2023-05-23T06:54:02;98834.34;;;17.02;95.41
16544;BME280;8384;47.996;7.786;2023-05-23T06:56:27;98834.91;;;17.18;95.01
16544;BME280;8384;47.996;7.786;2023-05-23T06:58:52;98841.00;;;17.34;93.52
16544;BME280;8384;47.996;7.786;2023-05-23T07:01:18;98839.16;;;17.44;92.99
16544;BME280;8384;47.996;7.786;2023-05-23T07:03:43;98815.09;;;17.30;92.40
16544;BME280;8384;47.996;7.786;2023-05-23T07:06:10;98843.28;;;17.60;90.75
16544;BME280;8384;47.996;7.786;2023-05-23T07:08:35;98843.38;;;17.69;90.74
16544;BME280;8384;47.996;7.786;2023-05-23T07:11:02;98839.06;;;17.91;89.65
16544;BME280;8384;47.996;7.786;2023-05-23T07:13:27;98812.97;;;17.83;88.82
16544;BME280;8384;47.996;7.786;2023-05-23T07:15:53;98848.41;;;18.09;87.71
16544;BME280;8384;47.996;7.786;2023-05-23T07:18:19;98852.09;;;18.04;87.90
16544;BME280;8384;47.996;7.786;2023-05-23T07:20:44;98839.09;;;18.05;88.81
16544;BME280;8384;47.996;7.786;2023-05-23T07:23:09;98846.66;;;18.27;86.79
16544;BME280;8384;47.996;7.786;2023-05-23T07:25:35;98851.75;;;18.34;85.78
16544;BME280;8384;47.996;7.786;2023-05-23T07:28:00;98843.47;;;18.34;86.56
16544;BME280;8384;47.996;7.786;2023-05-23T07:30:25;98848.47;;;18.32;85.59
16544;BME280;8384;47.996;7.786;2023-05-23T07:32:50;98850.13;;;18.33;85.93
16544;BME280;8384;47.996;7.786;2023-05-23T07:35:19;98854.59;;;18.42;85.69
16544;BME280;8384;47.996;7.786;2023-05-23T07:37:50;98855.47;;;18.66;84.29
16544;BME280;8384;47.996;7.786;2023-05-23T07:40:15;98864.88;;;18.79;83.87
16544;BME280;8384;47.996;7.786;2023-05-23T07:42:41;98854.88;;;18.92;82.73
16544;BME280;8384;47.996;7.786;2023-05-23T07:45:07;98859.97;;;19.21;81.13
16544;BME280;8384;47.996;7.786;2023-05-23T07:47:32;98857.13;;;19.35;81.97
16544;BME280;8384;47.996;7.786;2023-05-23T07:49:57;98859.25;;;19.70;77.67
16544;BME280;8384;47.996;7.786;2023-05-23T07:52:23;98813.38;;;19.55;77.68
16544;BME280;8384;47.996;7.786;2023-05-23T07:54:48;98856.47;;;20.01;77.69
16544;BME280;8384;47.996;7.786;2023-05-23T07:57:13;98845.28;;;20.42;76.37
16544;BME280;8384;47.996;7.786;2023-05-23T07:59:40;98821.44;;;20.58;73.67
16544;BME280;8384;47.996;7.786;2023-05-23T08:02:06;98849.91;;;20.99;71.57
16544;BME280;8384;47.996;7.786;2023-05-23T08:04:31;98859.06;;;20.82;72.13
16544;BME280;8384;47.996;7.786;2023-05-23T08:06:57;98849.06;;;20.55;74.00
16544;BME280;8384;47.996;7.786;2023-05-23T08:09:24;98860.53;;;19.95;76.88
16544;BME280;8384;47.996;7.786;2023-05-23T08:11:49;98832.94;;;18.95;81.04
16544;BME280;8384;47.996;7.786;2023-05-23T08:14:15;98867.75;;;18.73;83.79
16544;BME280;8384;47.996;7.786;2023-05-23T08:16:40;98853.06;;;18.50;84.59
16544;BME280;8384;47.996;7.786;2023-05-23T08:19:05;98863.38;;;18.22;86.32
16544;BME280;8384;47.996;7.786;2023-05-23T08:21:31;98820.69;;;18.00;86.70
16544;BME280;8384;47.996;7.786;2023-05-23T08:23:57;98868.31;;;18.62;85.18
16544;BME280;8384;47.996;7.786;2023-05-23T08:26:23;98867.78;;;18.59;85.05
16544;BME280;8384;47.996;7.786;2023-05-23T08:28:48;98826.75;;;18.39;82.95
16544;BME280;8384;47.996;7.786;2023-05-23T08:31:14;98847.97;;;18.66;82.48
16544;BME280;8384;47.996;7.786;2023-05-23T08:33:39;98874.81;;;18.80;81.63
16544;BME280;8384;47.996;7.786;2023-05-23T08:36:04;98874.44;;;18.72;82.97
16544;BME280;8384;47.996;7.786;2023-05-23T08:38:30;98851.06;;;18.65;83.45
16544;BME280;8384;47.996;7.786;2023-05-23T08:40:59;98835.75;;;18.44;83.03
16544;BME280;8384;47.996;7.786;2023-05-23T08:43:25;98871.28;;;18.88;82.09
16544;BME280;8384;47.996;7.786;2023-05-23T08:45:50;98880.09;;;18.90;81.75
16544;BME280;8384;47.996;7.786;2023-05-23T08:48:18;98876.81;;;18.88;81.82
16544;BME280;8384;47.996;7.786;2023-05-23T08:50:47;98831.13;;;18.54;81.21
16544;BME280;8384;47.996;7.786;2023-05-23T08:53:16;98888.09;;;18.55;81.87
16544;BME280;8384;47.996;7.786;2023-05-23T08:55:48;98889.13;;;18.45;83.06
16544;BME280;8384;47.996;7.786;2023-05-23T08:58:16;98887.50;;;18.81;82.27
16544;BME280;8384;47.996;7.786;2023-05-23T09:00:45;98870.44;;;18.65;81.89
16544;BME280;8384;47.996;7.786;2023-05-23T09:03:11;98851.94;;;18.37;83.21
16544;BME280;8384;47.996;7.786;2023-05-23T09:05:37;98894.28;;;18.52;83.19
16544;BME280;8384;47.996;7.786;2023-05-23T09:08:02;98902.56;;;18.52;82.94
16544;BME280;8384;47.996;7.786;2023-05-23T09:10:28;98880.72;;;18.50;82.33
16544;BME280;8384;47.996;7.786;2023-05-23T09:12:54;98900.72;;;18.84;81.11
16544;BME280;8384;47.996;7.786;2023-05-23T09:15:19;98870.41;;;18.79;80.12
16544;BME280;8384;47.996;7.786;2023-05-23T09:17:46;98885.78;;;19.08;79.82
16544;BME280;8384;47.996;7.786;2023-05-23T09:20:13;98898.97;;;19.02;79.08
16544;BME280;8384;47.996;7.786;2023-05-23T09:22:39;98894.03;;;19.22;78.59
16544;BME280;8384;47.996;7.786;2023-05-23T09:25:05;98892.06;;;19.45;77.39
16544;BME280;8384;47.996;7.786;2023-05-23T09:27:31;98890.44;;;19.75;75.21
16544;BME280;8384;47.996;7.786;2023-05-23T09:29:56;98898.53;;;20.35;73.78
16544;BME280;8384;47.996;7.786;2023-05-23T09:32:21;98897.13;;;20.06;72.54
16544;BME280;8384;47.996;7.786;2023-05-23T09:35:00;98893.13;;;20.30;71.28
16544;BME280;8384;47.996;7.786;2023-05-23T09:40:09;98889.38;;;19.85;72.23
16544;BME280;8384;47.996;7.786;2023-05-23T09:42:34;98880.72;;;20.36;70.59
16544;BME280;8384;47.996;7.786;2023-05-23T09:45:00;98901.69;;;20.60;70.83
16544;BME280;8384;47.996;7.786;2023-05-23T09:47:26;98833.69;;;20.66;68.51
16544;BME280;8384;47.996;7.786;2023-05-23T09:49:51;98905.66;;;21.03;67.69
16544;BME280;8384;47.996;7.786;2023-05-23T09:52:17;98913.28;;;20.62;67.87
16544;BME280;8384;47.996;7.786;2023-05-23T09:54:45;98908.41;;;20.18;69.23
16544;BME280;8384;47.996;7.786;2023-05-23T09:57:11;98881.03;;;20.26;69.94
16544;BME280;8384;47.996;7.786;2023-05-23T09:59:39;98858.09;;;20.87;65.96
16544;BME280;8384;47.996;7.786;2023-05-23T10:02:07;98892.06;;;20.92;65.73
16544;BME280;8384;47.996;7.786;2023-05-23T10:04:35;98914.78;;;21.12;66.48
16544;BME280;8384;47.996;7.786;2023-05-23T10:07:17;98878.75;;;20.28;67.87
16544;BME280;8384;47.996;7.786;2023-05-23T10:09:50;98885.88;;;19.79;69.99
16544;BME280;8384;47.996;7.786;2023-05-23T10:12:38;98900.94;;;20.28;69.63
16544;BME280;8384;47.996;7.786;2023-05-23T10:15:08;98892.34;;;20.56;69.72
16544;BME280;8384;47.996;7.786;2023-05-23T10:17:52;98885.66;;;20.57;68.88
16544;BME280;8384;47.996;7.786;2023-05-23T10:20:24;98893.66;;;20.58;65.73
16544;BME280;8384;47.996;7.786;2023-05-23T10:22:50;98863.38;;;21.53;62.79
16544;BME280;8384;47.996;7.786;2023-05-23T10:25:15;98879.59;;;21.99;61.71
16544;BME280;8384;47.996;7.786;2023-05-23T10:27:41;98853.03;;;22.01;62.18
16544;BME280;8384;47.996;7.786;2023-05-23T10:30:07;98867.09;;;20.83;64.00
16544;BME280;8384;47.996;7.786;2023-05-23T10:32:34;98890.44;;;21.09;64.74
16544;BME280;8384;47.996;7.786;2023-05-23T10:37:50;98889.41;;;21.40;63.48
16544;BME280;8384;47.996;7.786;2023-05-23T10:40:26;98891.66;;;21.73;60.98
16544;BME280;8384;47.996;7.786;2023-05-23T10:45:46;98889.47;;;20.87;64.94
16544;BME280;8384;47.996;7.786;2023-05-23T10:48:21;98885.59;;;20.30;66.77
16544;BME280;8384;47.996;7.786;2023-05-23T10:51:07;98885.88;;;20.87;66.11
16544;BME280;8384;47.996;7.786;2023-05-23T10:53:38;98880.75;;;21.24;62.42
16544;BME280;8384;47.996;7.786;2023-05-23T10:56:05;98885.53;;;21.88;60.99
16544;BME280;8384;47.996;7.786;2023-05-23T10:58:32;98877.22;;;21.80;59.28
16544;BME280;8384;47.996;7.786;2023-05-23T11:01:05;98869.75;;;22.01;60.46
16544;BME280;8384;47.996;7.786;2023-05-23T11:03:31;98886.78;;;22.00;59.89
16544;BME280;8384;47.996;7.786;2023-05-23T11:05:58;98861.34;;;20.97;63.61
16544;BME280;8384;47.996;7.786;2023-05-23T11:08:23;98871.66;;;21.15;63.20
16544;BME280;8384;47.996;7.786;2023-05-23T11:13:19;98862.22;;;21.46;59.14
16544;BME280;8384;47.996;7.786;2023-05-23T11:15:45;98884.59;;;21.84;57.47
16544;BME280;8384;47.996;7.786;2023-05-23T11:18:25;98887.94;;;21.99;60.27
16544;BME280;8384;47.996;7.786;2023-05-23T11:20:52;98850.84;;;21.86;62.12
16544;BME280;8384;47.996;7.786;2023-05-23T11:23:18;98886.13;;;21.47;61.74
16544;BME280;8384;47.996;7.786;2023-05-23T11:25:51;98893.88;;;20.97;65.07
16544;BME280;8384;47.996;7.786;2023-05-23T11:28:18;98886.50;;;21.27;62.84
16544;BME280;8384;47.996;7.786;2023-05-23T11:30:47;98873.00;;;21.65;61.87
16544;BME280;8384;47.996;7.786;2023-05-23T11:33:14;98881.34;;;21.56;61.59
16544;BME280;8384;47.996;7.786;2023-05-23T11:35:44;98884.22;;;22.25;60.07
16544;BME280;8384;47.996;7.786;2023-05-23T11:38:10;98870.22;;;22.33;59.20
16544;BME280;8384;47.996;7.786;2023-05-23T11:40:38;98881.75;;;21.19;63.09
16544;BME280;8384;47.996;7.786;2023-05-23T11:43:06;98884.38;;;21.24;62.91
16544;BME280;8384;47.996;7.786;2023-05-23T11:45:33;98874.31;;;21.58;62.76
16544;BME280;8384;47.996;7.786;2023-05-23T11:48:04;98889.41;;;21.40;63.76
16544;BME280;8384;47.996;7.786;2023-05-23T11:50:30;98872.47;;;21.80;61.04
16544;BME280;8384;47.996;7.786;2023-05-23T11:52:55;98889.22;;;21.54;59.54
16544;BME280;8384;47.996;7.786;2023-05-23T11:55:21;98869.16;;;21.87;59.88
16544;BME280;8384;47.996;7.786;2023-05-23T11:57:48;98874.31;;;21.67;57.62
16544;BME280;8384;47.996;7.786;2023-05-23T12:00:14;98881.00;;;21.75;59.38
16544;BME280;8384;47.996;7.786;2023-05-23T12:02:41;98882.66;;;21.58;58.42
16544;BME280;8384;47.996;7.786;2023-05-23T12:05:10;98886.44;;;21.63;57.56
16544;BME280;8384;47.996;7.786;2023-05-23T12:07:43;98859.75;;;22.00;56.93
16544;BME280;8384;47.996;7.786;2023-05-23T12:10:10;98886.75;;;22.69;55.42
16544;BME280;8384;47.996;7.786;2023-05-23T12:12:36;98860.63;;;22.95;54.14
16544;BME280;8384;47.996;7.786;2023-05-23T12:15:02;98888.97;;;22.75;56.22
16544;BME280;8384;47.996;7.786;2023-05-23T12:17:27;98883.47;;;22.07;56.54
16544;BME280;8384;47.996;7.786;2023-05-23T12:19:54;98890.28;;;21.88;56.39
16544;BME280;8384;47.996;7.786;2023-05-23T12:22:23;98854.66;;;21.72;56.92
16544;BME280;8384;47.996;7.786;2023-05-23T12:24:52;98873.66;;;22.09;55.89
16544;BME280;8384;47.996;7.786;2023-05-23T12:27:18;98887.09;;;22.37;56.20
16544;BME280;8384;47.996;7.786;2023-05-23T12:29:49;98899.69;;;22.05;56.03
16544;BME280;8384;47.996;7.786;2023-05-23T12:32:16;98887.28;;;22.83;53.61
16544;BME280;8384;47.996;7.786;2023-05-23T12:34:41;98858.53;;;22.40;53.90
16544;BME280;8384;47.996;7.786;2023-05-23T12:37:07;98874.91;;;22.93;53.13
16544;BME280;8384;47.996;7.786;2023-05-23T12:39:35;98882.81;;;22.40;54.32
16544;BME280;8384;47.996;7.786;2023-05-23T12:42:07;98877.63;;;22.81;54.10
16544;BME280;8384;47.996;7.786;2023-05-23T12:44:33;98856.13;;;21.70;56.02
16544;BME280;8384;47.996;7.786;2023-05-23T12:46:58;98874.69;;;21.96;55.69
16544;BME280;8384;47.996;7.786;2023-05-23T12:49:23;98861.25;;;21.50;56.87
16544;BME280;8384;47.996;7.786;2023-05-23T12:51:49;98856.84;;;21.49;56.67
16544;BME280;8384;47.996;7.786;2023-05-23T12:54:14;98858.91;;;21.70;56.12
16544;BME280;8384;47.996;7.786;2023-05-23T12:56:39;98843.28;;;21.39;56.37
16544;BME280;8384;47.996;7.786;2023-05-23T12:59:05;98850.84;;;21.86;56.37
16544;BME280;8384;47.996;7.786;2023-05-23T13:01:30;98877.22;;;22.70;52.58
16544;BME280;8384;47.996;7.786;2023-05-23T13:03:58;98845.38;;;21.98;53.07
16544;BME280;8384;47.996;7.786;2023-05-23T13:06:23;98841.28;;;21.57;54.64
16544;BME280;8384;47.996;7.786;2023-05-23T13:08:49;98864.41;;;21.87;56.21
16544;BME280;8384;47.996;7.786;2023-05-23T13:11:16;98866.91;;;22.49;52.90
16544;BME280;8384;47.996;7.786;2023-05-23T13:13:41;98848.78;;;22.34;51.63
16544;BME280;8384;47.996;7.786;2023-05-23T13:16:06;98836.53;;;22.26;51.85
16544;BME280;8384;47.996;7.786;2023-05-23T13:18:33;98860.47;;;21.97;52.89
16544;BME280;8384;47.996;7.786;2023-05-23T13:20:58;98863.88;;;22.03;53.10
16544;BME280;8384;47.996;7.786;2023-05-23T13:23:24;98862.22;;;22.62;52.66